^^
Saratoga-Weather Station Historical Data
Daily Summary for August 14, 2020 Units:  Metric    English   Both
Daily Weekly Monthly Yearly Custom
  High: Low: Average:
Temperature: 24 °C 20.9 °C 22.1 °C
Dew Point: 18.5 °C 15.1 °C 16.3 °C
Humidity: 83% 58% 70%
Wind Speed: 11.1km/h 0km/h 1.5km/h
Wind Gust: 14.5km/h - -
Wind- - WSW
Pressure: 1013.2 hPa 1011.5 hPa -
Precipitation: 0.0 mm    
Historical Graphs
 
 
Tabular Data for August 14, 2020
Time Temperature Dew Point Pressure Wind Wind Speed Wind Gust Humidity Rainfall Rate (Hourly) solar
00:04 23.8 °C 15.3 °C 1012.2 hPa West 3.2 km/h 12.9 km/h 59% 0.0 mm 0 W/m2
00:09 23.9 °C 15.1 °C 1012.2 hPa West 3.2 km/h 14.5 km/h 58% 0.0 mm 0 W/m2
00:14 23.9 °C 15.1 °C 1012.2 hPa WNW 6.4 km/h 6.4 km/h 58% 0.0 mm 0 W/m2
00:19 23.9 °C 15.1 °C 1012.2 hPa WSW 4.7 km/h 11.3 km/h 58% 0.0 mm 0 W/m2
00:24 23.9 °C 15.1 °C 1012.2 hPa West 11.1 km/h 12.9 km/h 58% 0.0 mm 0 W/m2
00:29 23.9 °C 15.1 °C 1012.2 hPa WNW 6.4 km/h 9.7 km/h 58% 0.0 mm 0 W/m2
00:34 23.9 °C 15.1 °C 1012.2 hPa West 4.7 km/h 12.9 km/h 58% 0.0 mm 0 W/m2
00:39 23.9 °C 15.1 °C 1012.2 hPa West 4.7 km/h 11.3 km/h 58% 0.0 mm 0 W/m2
00:44 24 °C 15.2 °C 1012.2 hPa WNW 6.4 km/h 6.4 km/h 58% 0.0 mm 0 W/m2
00:49 24 °C 15.2 °C 1012.2 hPa NW 3.2 km/h 6.4 km/h 58% 0.0 mm 0 W/m2
00:54 23.9 °C 15.1 °C 1012.2 hPa WNW 4.7 km/h 11.3 km/h 58% 0.0 mm 0 W/m2
00:59 23.8 °C 15.3 °C 1012.2 hPa West 3.2 km/h 14.5 km/h 59% 0.0 mm 0 W/m2
01:05 23.8 °C 15.3 °C 1012.2 hPa WNW 3.2 km/h 9.7 km/h 59% 0.0 mm 0 W/m2
01:10 23.8 °C 15.3 °C 1012.2 hPa NW 4.7 km/h 12.9 km/h 59% 0.0 mm 0 W/m2
01:15 23.8 °C 15.3 °C 1012.2 hPa WNW 1.4 km/h 3.2 km/h 59% 0.0 mm 0 W/m2
01:20 23.7 °C 15.5 °C 1012.2 hPa NW 1.4 km/h 8 km/h 60% 0.0 mm 0 W/m2
01:25 23.7 °C 15.5 °C 1012.2 hPa WNW 3.2 km/h 4.8 km/h 60% 0.0 mm 0 W/m2
01:30 23.5 °C 15.5 °C 1012.2 hPa West 4.7 km/h 6.4 km/h 61% 0.0 mm 0 W/m2
01:35 23.3 °C 15.4 °C 1012.2 hPa West 4.7 km/h 4.8 km/h 61% 0.0 mm 0 W/m2
01:40 23.2 °C 15.5 °C 1012.2 hPa Calm     62% 0.0 mm 0 W/m2
01:45 23 °C 15.3 °C 1012.2 hPa Calm     62% 0.0 mm 0 W/m2
01:50 22.8 °C 15.4 °C 1011.9 hPa Calm     63% 0.0 mm 0 W/m2
01:55 22.7 °C 15.5 °C 1011.9 hPa Calm     64% 0.0 mm 0 W/m2
02:00 22.6 °C 15.4 °C 1011.9 hPa Calm     64% 0.0 mm 0 W/m2
02:05 22.4 °C 15.5 °C 1011.9 hPa Calm     65% 0.0 mm 0 W/m2
02:10 22.3 °C 15.4 °C 1011.9 hPa Calm   3.2 km/h 65% 0.0 mm 0 W/m2
02:15 22.4 °C 15.3 °C 1011.9 hPa West 4.7 km/h 4.8 km/h 64% 0.0 mm 0 W/m2
02:20 22.7 °C 15.3 °C 1011.9 hPa West 3.2 km/h 12.9 km/h 63% 0.0 mm 0 W/m2
02:25 23.1 °C 15.4 °C 1011.9 hPa WNW 3.2 km/h 4.8 km/h 62% 0.0 mm 0 W/m2
02:30 23.3 °C 15.6 °C 1011.9 hPa West 1.4 km/h 8 km/h 62% 0.0 mm 0 W/m2
02:35 23.3 °C 15.4 °C 1011.9 hPa WSW 3.2 km/h 4.8 km/h 61% 0.0 mm 0 W/m2
02:40 23.3 °C 15.4 °C 1011.9 hPa West 1.4 km/h 3.2 km/h 61% 0.0 mm 0 W/m2
02:46 23.3 °C 15.4 °C 1011.9 hPa WNW 1.4 km/h 3.2 km/h 61% 0.0 mm 0 W/m2
02:51 23.2 °C 15.5 °C 1011.9 hPa West 3.2 km/h 4.8 km/h 62% 0.0 mm 0 W/m2
02:56 23.1 °C 15.4 °C 1011.9 hPa West 1.4 km/h 4.8 km/h 62% 0.0 mm 0 W/m2
03:01 23.1 °C 15.4 °C 1011.5 hPa Calm   3.2 km/h 62% 0.0 mm 0 W/m2
03:06 23 °C 15.3 °C 1011.9 hPa West 1.4 km/h 4.8 km/h 62% 0.0 mm 0 W/m2
03:11 22.9 °C 15.5 °C 1011.9 hPa West 1.4 km/h 3.2 km/h 63% 0.0 mm 0 W/m2
03:16 22.8 °C 15.4 °C 1011.9 hPa WSW 3.2 km/h 4.8 km/h 63% 0.0 mm 0 W/m2
03:21 22.9 °C 15.5 °C 1011.9 hPa West 3.2 km/h 3.2 km/h 63% 0.0 mm 0 W/m2
03:26 22.9 °C 15.5 °C 1011.9 hPa West 3.2 km/h 4.8 km/h 63% 0.0 mm 0 W/m2
03:31 23 °C 15.6 °C 1011.9 hPa WNW 3.2 km/h 3.2 km/h 63% 0.0 mm 0 W/m2
03:36 23 °C 15.3 °C 1011.9 hPa WNW 3.2 km/h 6.4 km/h 62% 0.0 mm 0 W/m2
03:41 23 °C 15.6 °C 1011.9 hPa NW 1.4 km/h 3.2 km/h 63% 0.0 mm 0 W/m2
03:46 23 °C 15.6 °C 1011.9 hPa NW 1.4 km/h 3.2 km/h 63% 0.0 mm 0 W/m2
03:51 22.9 °C 15.5 °C 1011.9 hPa Calm   1.6 km/h 63% 0.0 mm 0 W/m2
03:56 22.7 °C 15.8 °C 1011.9 hPa Calm     65% 0.0 mm 0 W/m2
04:01 22.6 °C 15.7 °C 1011.9 hPa North 3.2 km/h 3.2 km/h 65% 0.0 mm 0 W/m2
04:06 22.4 °C 15.7 °C 1011.9 hPa Calm   1.6 km/h 66% 0.0 mm 0 W/m2
04:11 22.3 °C 15.6 °C 1011.9 hPa NE 1.4 km/h 3.2 km/h 66% 0.0 mm 0 W/m2
04:16 22.2 °C 15.8 °C 1011.9 hPa East 1.4 km/h 3.2 km/h 67% 0.0 mm 0 W/m2
04:21 22 °C 15.6 °C 1011.9 hPa East 1.4 km/h 1.6 km/h 67% 0.0 mm 0 W/m2
04:26 21.9 °C 15.7 °C 1011.9 hPa Calm   1.6 km/h 68% 0.0 mm 0 W/m2
04:31 21.8 °C 15.6 °C 1011.9 hPa Calm     68% 0.0 mm 0 W/m2
04:37 21.7 °C 15.8 °C 1011.9 hPa Calm     69% 0.0 mm 0 W/m2
04:42 21.6 °C 15.7 °C 1011.9 hPa Calm     69% 0.0 mm 0 W/m2
04:47 21.5 °C 15.6 °C 1011.9 hPa Calm     69% 0.0 mm 0 W/m2
04:52 21.4 °C 15.7 °C 1011.9 hPa Calm     70% 0.0 mm 0 W/m2
04:57 21.3 °C 15.6 °C 1011.9 hPa Calm     70% 0.0 mm 0 W/m2
05:02 21.3 °C 15.8 °C 1011.9 hPa Calm     71% 0.0 mm 0 W/m2
05:07 21.2 °C 15.7 °C 1011.9 hPa Calm     71% 0.0 mm 0 W/m2
05:12 21.1 °C 15.6 °C 1011.9 hPa SE 1.4 km/h 3.2 km/h 71% 0.0 mm 0 W/m2
05:17 20.9 °C 15.7 °C 1012.2 hPa SE 1.4 km/h 1.6 km/h 72% 0.0 mm 0 W/m2
05:22 20.9 °C 15.7 °C 1012.2 hPa South 1.4 km/h 1.6 km/h 72% 0.0 mm 0 W/m2
05:27 20.9 °C 15.7 °C 1012.2 hPa Calm     72% 0.0 mm 0 W/m2
05:32 20.9 °C 15.7 °C 1012.2 hPa Calm   1.6 km/h 72% 0.0 mm 0 W/m2
05:37 21 °C 15.8 °C 1012.2 hPa Calm   1.6 km/h 72% 0.0 mm 0 W/m2
05:42 21 °C 15.8 °C 1012.2 hPa Calm     72% 0.0 mm 0 W/m2
05:47 20.9 °C 15.9 °C 1012.2 hPa Calm   3.2 km/h 73% 0.0 mm 0 W/m2
05:52 21 °C 16 °C 1012.2 hPa WSW 3.2 km/h 3.2 km/h 73% 0.0 mm 0 W/m2
05:57 21.1 °C 16.1 °C 1012.2 hPa WSW 1.4 km/h 3.2 km/h 73% 0.0 mm 0 W/m2
06:02 21.2 °C 16.2 °C 1012.2 hPa Calm   1.6 km/h 73% 0.0 mm 0 W/m2
06:07 21.2 °C 15.9 °C 1012.2 hPa Calm     72% 0.0 mm 0 W/m2
06:12 21.2 °C 16.2 °C 1012.2 hPa Calm   1.6 km/h 73% 0.0 mm 0 W/m2
06:17 21.2 °C 16.2 °C 1012.2 hPa Calm     73% 0.0 mm 0 W/m2
06:22 21.2 °C 16.2 °C 1012.2 hPa Calm   1.6 km/h 73% 0.0 mm 0 W/m2
06:27 21.2 °C 16.2 °C 1012.2 hPa Calm     73% 0.0 mm 0 W/m2
06:32 21.2 °C 16.4 °C 1012.2 hPa Calm     74% 0.0 mm 0 W/m2
06:37 21.2 °C 16.4 °C 1012.2 hPa Calm     74% 0.0 mm 5 W/m2
06:42 21.2 °C 16.6 °C 1012.5 hPa Calm     75% 0.0 mm 11 W/m2
06:48 21.1 °C 16.5 °C 1012.5 hPa Calm     75% 0.0 mm 21 W/m2
06:53 21.1 °C 16.7 °C 1012.5 hPa Calm     76% 0.0 mm 25 W/m2
06:58 21.1 °C 16.7 °C 1012.5 hPa Calm   1.6 km/h 76% 0.0 mm 19 W/m2
07:03 21.2 °C 16.8 °C 1012.5 hPa Calm     76% 0.0 mm 14 W/m2
07:08 21.2 °C 16.8 °C 1012.5 hPa Calm     76% 0.0 mm 12 W/m2
07:13 21.2 °C 16.8 °C 1012.5 hPa Calm     76% 0.0 mm 16 W/m2
07:18 21.2 °C 17 °C 1012.5 hPa West 1.4 km/h 4.8 km/h 77% 0.0 mm 18 W/m2
07:23 21.2 °C 17 °C 1012.9 hPa Calm   1.6 km/h 77% 0.0 mm 19 W/m2
07:28 21.2 °C 17 °C 1012.9 hPa Calm   1.6 km/h 77% 0.0 mm 19 W/m2
07:33 21.2 °C 17 °C 1012.9 hPa Calm     77% 0.0 mm 21 W/m2
07:38 21.2 °C 17 °C 1012.9 hPa Calm     77% 0.0 mm 30 W/m2
07:43 21.2 °C 17 °C 1012.9 hPa Calm     77% 0.0 mm 35 W/m2
07:48 21.2 °C 17.2 °C 1012.9 hPa Calm     78% 0.0 mm 37 W/m2
07:53 21.3 °C 17.3 °C 1012.9 hPa ESE 1.4 km/h 3.2 km/h 78% 0.0 mm 37 W/m2
07:58 21.3 °C 17.3 °C 1012.9 hPa WSW 1.4 km/h 4.8 km/h 78% 0.0 mm 32 W/m2
08:03 21.3 °C 17.3 °C 1012.9 hPa Calm   1.6 km/h 78% 0.0 mm 33 W/m2
08:08 21.3 °C 17.3 °C 1012.9 hPa WNW 1.4 km/h 1.6 km/h 78% 0.0 mm 47 W/m2
08:13 21.3 °C 17.3 °C 1012.9 hPa NE 1.4 km/h 4.8 km/h 78% 0.0 mm 58 W/m2
08:18 21.3 °C 17.5 °C 1012.9 hPa WNW 3.2 km/h 8 km/h 79% 0.0 mm 63 W/m2
08:23 21.3 °C 17.5 °C 1012.9 hPa NW 3.2 km/h 3.2 km/h 79% 0.0 mm 58 W/m2
08:28 21.3 °C 17.5 °C 1012.9 hPa Calm   6.4 km/h 79% 0.0 mm 47 W/m2
08:33 21.3 °C 17.7 °C 1012.9 hPa NW 1.4 km/h 3.2 km/h 80% 0.0 mm 42 W/m2
08:38 21.3 °C 17.7 °C 1012.9 hPa NNW 3.2 km/h 4.8 km/h 80% 0.0 mm 47 W/m2
08:43 21.3 °C 17.7 °C 1013.2 hPa Calm     80% 0.0 mm 65 W/m2
08:48 21.3 °C 17.7 °C 1013.2 hPa SSW 1.4 km/h 4.8 km/h 80% 0.0 mm 72 W/m2
08:53 21.3 °C 17.7 °C 1013.2 hPa North 1.4 km/h 3.2 km/h 80% 0.0 mm 65 W/m2
08:58 21.3 °C 17.9 °C 1013.2 hPa NNE 1.4 km/h 1.6 km/h 81% 0.0 mm 65 W/m2
09:03 21.3 °C 17.9 °C 1013.2 hPa ENE 1.4 km/h 1.6 km/h 81% 0.0 mm 65 W/m2
09:08 21.3 °C 17.9 °C 1013.2 hPa South 3.2 km/h 3.2 km/h 81% 0.0 mm 69 W/m2
09:13 21.3 °C 17.9 °C 1013.2 hPa Calm   1.6 km/h 81% 0.0 mm 83 W/m2
09:18 21.3 °C 18.1 °C 1013.2 hPa Calm     82% 0.0 mm 102 W/m2
09:23 21.3 °C 18.1 °C 1013.2 hPa East 1.4 km/h 3.2 km/h 82% 0.0 mm 130 W/m2
09:28 21.3 °C 18.1 °C 1013.2 hPa NNW 1.4 km/h 3.2 km/h 82% 0.0 mm 139 W/m2
09:33 21.4 °C 18.4 °C 1013.2 hPa Calm   1.6 km/h 83% 0.0 mm 128 W/m2
09:38 21.3 °C 18.3 °C 1013.2 hPa NW 1.4 km/h 3.2 km/h 83% 0.0 mm 128 W/m2
09:43 21.3 °C 18.3 °C 1013.2 hPa Calm     83% 0.0 mm 123 W/m2
09:48 21.4 °C 18.4 °C 1013.2 hPa WNW 1.4 km/h 3.2 km/h 83% 0.0 mm 121 W/m2
09:53 21.4 °C 18.4 °C 1013.2 hPa Calm   1.6 km/h 83% 0.0 mm 132 W/m2
09:58 21.4 °C 18.4 °C 1013.2 hPa Calm     83% 0.0 mm 151 W/m2
10:03 21.5 °C 18.5 °C 1013.2 hPa Calm   4.8 km/h 83% 0.0 mm 174 W/m2
10:08 21.7 °C 18.5 °C 1013.2 hPa Calm   1.6 km/h 82% 0.0 mm 176 W/m2
10:13 21.8 °C 18.4 °C 1013.2 hPa Calm   4.8 km/h 81% 0.0 mm 197 W/m2
10:18 21.9 °C 18.5 °C 1013.2 hPa North 1.4 km/h 1.6 km/h 81% 0.0 mm 160 W/m2
10:23 22.1 °C 18.3 °C 1013.2 hPa ESE 3.2 km/h 4.8 km/h 79% 0.0 mm 121 W/m2
Juneau County Weather
Compliments of Weather Underground - 2 mb